Lafayette, Wisconsin
Current Conditions -  °F | °C
As of 10:56 AM on Saturday 25 Oct 2014 (Local Time) from KEAU Reporting Station
Clear Clear  
Wind Chill: 57°   Ceiling: Unl
Heat Index: 57°   Visibility: 10mi
Dew Point: 35°   Wind: 13mph
Humidity: 44%   Direction: 300°WNW
Pressure: 29.98"   Gusts: NA
Location:  44.9743°N, 91.4379°W
Report Text: KEAU 251556Z 30011KT 10SM CLR 14/02 A2998 RMK AO2 SLP153 T01390017
Loading
Personal Weather Stations






























Interactive Weather Map
Tropical Storm Tracking
New forecast layout! Learn more

10-Day Weather Forecast

Advertisements
Track Severe Weather on mobile